Terminal Aerodrome Forecast
Issued by NWS Topeka, KS

Home | Current Version | Previous Version | Text Only | Print | Product List | Glossary On
Versions: 1 2 3 4 5 6 7 8 9 10 11 12 13 14 15 16 17 18 19 20 21 22 23
814
FTUS43 KTOP 011754 CCB
TAFTOP
TAF COR
KTOP 011754Z 0118/0218 28011KT P6SM SCT020 BKN035
     FM012000 29010KT P6SM BKN015=

USA.gov is the U.S. government's official web portal to all federal, state and local government web resources and services.